createdAt,value
2018-06-08T21:20:43.045Z,79.80
2018-06-08T21:23:11.338Z,80.60
2018-06-08T21:25:39.324Z,81.40
2018-06-08T21:28:07.069Z,80.60
2018-06-08T21:30:34.948Z,80.40
2018-06-08T21:33:02.519Z,80.40
2018-06-08T21:35:30.215Z,80.40
2018-06-08T21:37:58.871Z,80.60
2018-06-08T21:40:29.064Z,80.60
2018-06-08T21:42:57.041Z,80.40
2018-06-08T21:45:24.913Z,80.20
2018-06-08T21:47:52.429Z,80.30
2018-06-08T21:50:20.021Z,80.30
2018-06-08T21:52:47.514Z,80.20
2018-06-08T21:55:15.026Z,80.20
2018-06-08T21:57:42.525Z,80.20
2018-06-08T22:00:10.396Z,80.40
2018-06-08T22:02:37.912Z,80.10
2018-06-08T22:05:05.425Z,79.90
2018-06-08T22:07:32.997Z,79.90
2018-06-08T22:10:00.474Z,80.00
2018-06-08T22:12:27.988Z,80.00
2018-06-08T22:14:55.505Z,79.80
2018-06-08T22:17:23.000Z,80.10
2018-06-08T22:19:50.845Z,79.80
2018-06-08T22:22:18.404Z,79.70
2018-06-08T22:24:45.904Z,78.10
2018-06-08T22:27:13.427Z,76.90
2018-06-08T22:29:40.956Z,76.90
2018-06-08T22:32:08.489Z,76.80
2018-06-08T22:34:35.995Z,76.00
2018-06-08T22:37:03.505Z,76.20
2018-06-08T22:39:31.001Z,75.80
2018-06-08T22:41:58.533Z,76.20
2018-06-08T22:44:26.025Z,76.40
2018-06-08T22:46:53.579Z,76.00
2018-06-08T22:49:21.085Z,76.40
2018-06-08T22:51:48.653Z,76.20
2018-06-08T22:54:16.158Z,75.80
2018-06-08T22:56:43.676Z,76.10
2018-06-08T22:59:11.183Z,75.40
2018-06-08T23:01:38.749Z,75.60
2018-06-08T23:04:06.245Z,75.60
2018-06-08T23:06:33.768Z,75.20
2018-06-08T23:09:01.328Z,75.30
2018-06-08T23:11:29.257Z,75.60
2018-06-08T23:13:56.752Z,75.40
2018-06-08T23:16:24.274Z,75.40
2018-06-08T23:18:51.785Z,75.10
2018-06-08T23:21:19.291Z,75.10
2018-06-08T23:23:46.803Z,75.00
2018-06-08T23:26:14.324Z,75.20
2018-06-08T23:28:41.819Z,74.40
2018-06-08T23:31:09.352Z,74.30
2018-06-08T23:33:36.842Z,74.50
2018-06-08T23:36:04.345Z,74.10
2018-06-08T23:38:31.848Z,74.30
2018-06-08T23:40:59.353Z,74.00
2018-06-08T23:43:26.869Z,73.90
2018-06-08T23:45:54.352Z,73.30
2018-06-08T23:48:22.908Z,73.90
2018-06-08T23:50:50.395Z,73.90
2018-06-08T23:53:17.897Z,73.60
2018-06-08T23:55:45.405Z,73.20
2018-06-08T23:58:12.909Z,73.20
